Time;durP1;ratioP1;P1;durP2;ratioP2;P2;SDS_P1;SDS_P2;PMS_P1;PMS_P2;Temp;Humidity;BMP_temperature;BMP_pressure;BME280_temperature;BME280_humidity;BME280_pressure;Samples;Min_cycle;Max_cycle;Signal;HPM_P1;HPM_P2
2021/12/02 00:01:34;;;;;;;1.07;0.90;;;7.30;84.40;;;;;;5101681;28;20449;-43
2021/12/02 00:04:01;;;;;;;2.37;1.10;;;7.30;84.20;;;;;;5089382;28;20948;-44
2021/12/02 00:06:28;;;;;;;1.43;0.70;;;7.20;84.40;;;;;;5099907;28;20448;-43
2021/12/02 00:08:55;;;;;;;1.67;0.80;;;7.20;84.60;;;;;;5099147;28;21188;-43
2021/12/02 00:11:21;;;;;;;1.27;0.50;;;7.20;84.20;;;;;;5102062;28;21020;-43
2021/12/02 00:16:29;;;;;;;1.20;0.60;;;7.20;84.40;;;;;;5098682;28;20853;-44
2021/12/02 00:21:50;;;;;;;2.43;0.60;;;7.10;84.60;;;;;;5102278;27;20989;-44
2021/12/02 00:24:22;;;;;;;1.23;0.50;;;7.10;84.80;;;;;;5098085;27;20954;-43
2021/12/02 00:26:51;;;;;;;0.60;0.60;;;7.10;85.00;;;;;;5082179;28;20883;-44
2021/12/02 00:29:21;;;;;;;1.60;1.50;;;7.10;85.10;;;;;;5093135;27;20522;-48
2021/12/02 00:31:50;;;;;;;1.23;0.60;;;7.10;85.10;;;;;;5087573;27;20774;-44
2021/12/02 00:34:19;;;;;;;0.93;0.57;;;7.10;85.10;;;;;;5094270;28;20452;-44
2021/12/02 00:36:46;;;;;;;1.07;0.50;;;7.10;85.10;;;;;;5095433;27;20479;-44
2021/12/02 00:39:18;;;;;;;0.47;0.47;;;7.00;85.20;;;;;;5080874;28;20532;-44
2021/12/02 00:41:46;;;;;;;1.50;0.50;;;7.00;85.30;;;;;;5096303;28;20468;-44
2021/12/02 00:44:14;;;;;;;1.37;0.53;;;7.00;85.40;;;;;;5099118;27;20566;-44
2021/12/02 00:46:43;;;;;;;0.90;0.50;;;7.00;85.40;;;;;;5095556;28;20488;-44
2021/12/02 00:49:14;;;;;;;1.60;0.43;;;7.00;85.40;;;;;;5098233;27;20453;-44
2021/12/02 00:51:44;;;;;;;0.47;0.47;;;7.00;85.50;;;;;;5102474;27;20495;-44
2021/12/02 00:54:12;;;;;;;0.70;0.60;;;7.00;85.70;;;;;;5096212;27;20456;-44
2021/12/02 00:56:40;;;;;;;0.80;0.50;;;7.00;85.80;;;;;;5088631;27;20846;-44
2021/12/02 00:59:08;;;;;;;0.63;0.60;;;7.00;85.90;;;;;;5082697;28;20461;-44
2021/12/02 01:01:38;;;;;;;0.50;0.43;;;7.00;86.10;;;;;;5099079;27;20468;-44
2021/12/02 01:04:12;;;;;;;0.87;0.57;;;7.00;86.20;;;;;;5099184;27;20453;-44
2021/12/02 01:06:43;;;;;;;0.50;0.50;;;7.00;86.30;;;;;;5089425;27;21136;-44
2021/12/02 01:09:11;;;;;;;1.03;0.40;;;7.00;86.40;;;;;;5097247;27;20481;-44
2021/12/02 01:11:39;;;;;;;0.67;0.67;;;6.90;86.40;;;;;;5099828;27;20482;-44
2021/12/02 01:14:07;;;;;;;1.03;0.67;;;7.00;86.50;;;;;;5094289;28;20463;-44
2021/12/02 01:16:34;;;;;;;1.80;1.03;;;7.00;86.60;;;;;;5098112;28;20452;-44
2021/12/02 01:19:03;;;;;;;0.90;0.90;;;7.00;86.70;;;;;;5086120;28;20459;-44
2021/12/02 01:21:30;;;;;;;1.77;1.23;;;7.00;86.80;;;;;;5063951;28;20973;-44
2021/12/02 01:24:00;;;;;;;1.37;1.27;;;7.00;87.10;;;;;;5081794;28;20465;-44
2021/12/02 01:26:29;;;;;;;1.67;1.50;;;7.10;87.00;;;;;;5078485;28;20470;-44
2021/12/02 01:28:57;;;;;;;2.00;0.77;;;7.10;86.90;;;;;;5098591;27;20551;-44
2021/12/02 01:31:30;;;;;;;1.53;1.27;;;7.10;86.60;;;;;;5099073;27;20506;-44
2021/12/02 01:34:05;;;;;;;2.20;1.47;;;7.10;86.60;;;;;;5096468;27;20468;-44
2021/12/02 01:36:33;;;;;;;1.73;1.30;;;7.10;85.90;;;;;;5096960;27;20454;-44
2021/12/02 01:39:01;;;;;;;1.40;0.90;;;7.10;85.80;;;;;;5097379;27;20451;-44
2021/12/02 01:41:28;;;;;;;1.63;1.30;;;7.00;86.10;;;;;;5086335;27;20921;-44
2021/12/02 01:43:54;;;;;;;2.30;0.90;;;7.00;86.00;;;;;;5095018;27;20464;-44
2021/12/02 01:46:25;;;;;;;1.50;0.60;;;6.90;85.90;;;;;;5092777;27;20460;-44
2021/12/02 01:49:02;;;;;;;1.40;0.80;;;6.90;85.70;;;;;;5094484;27;20456;-44
2021/12/02 01:51:29;;;;;;;1.53;0.57;;;7.00;85.30;;;;;;5102386;27;20490;-44
2021/12/02 01:54:11;;;;;;;3.03;1.00;;;7.00;84.90;;;;;;5085456;28;20461;-44
2021/12/02 01:56:53;;;;;;;1.33;1.07;;;7.00;83.80;;;;;;5079321;28;20998;-43
2021/12/02 01:59:33;;;;;;;2.30;0.70;;;6.90;82.80;;;;;;5096427;27;21525;-44
2021/12/02 02:02:09;;;;;;;4.60;0.57;;;6.90;83.00;;;;;;5094042;28;20465;-44
2021/12/02 02:04:37;;;;;;;4.90;0.97;;;6.80;82.80;;;;;;5097825;27;20452;-44
2021/12/02 02:07:13;;;;;;;2.60;0.70;;;6.80;82.80;;;;;;5080170;28;20463;-44
2021/12/02 02:09:40;;;;;;;2.63;0.70;;;6.80;83.00;;;;;;5097069;28;20544;-44
2021/12/02 02:12:10;;;;;;;0.70;0.40;;;6.70;83.10;;;;;;5079502;28;20507;-44
2021/12/02 02:14:40;;;;;;;1.23;0.70;;;6.70;83.00;;;;;;5096221;27;20463;-44
2021/12/02 02:17:15;;;;;;;4.90;2.20;;;6.70;83.40;;;;;;5095844;27;20468;-44
2021/12/02 02:19:42;;;;;;;1.80;1.40;;;6.70;83.10;;;;;;5099394;27;20451;-44
2021/12/02 02:22:09;;;;;;;1.07;0.73;;;6.60;83.30;;;;;;5078302;28;20461;-44
2021/12/02 02:24:35;;;;;;;4.10;0.90;;;6.60;83.40;;;;;;5098767;27;20460;-44
2021/12/02 02:27:04;;;;;;;3.67;0.70;;;6.60;83.40;;;;;;5083993;28;20460;-44
2021/12/02 02:29:31;;;;;;;2.00;0.50;;;6.60;83.00;;;;;;5097630;28;20886;-44
2021/12/02 02:31:57;;;;;;;1.53;0.80;;;6.50;83.20;;;;;;5095068;28;20487;-44
2021/12/02 02:34:25;;;;;;;1.20;0.67;;;6.50;83.40;;;;;;5092935;28;20468;-44
2021/12/02 02:36:55;;;;;;;1.43;0.93;;;6.50;83.40;;;;;;5076228;28;20878;-44
2021/12/02 02:39:22;;;;;;;0.67;0.67;;;6.50;83.70;;;;;;5081266;28;20839;-44
2021/12/02 02:41:58;;;;;;;0.50;0.30;;;6.50;83.90;;;;;;5097233;28;20467;-44
2021/12/02 02:44:27;;;;;;;3.27;1.53;;;6.50;83.90;;;;;;5097624;28;20440;-44
2021/12/02 02:46:54;;;;;;;2.73;0.70;;;6.40;84.00;;;;;;5098668;28;20466;-44
2021/12/02 02:49:22;;;;;;;3.50;2.30;;;6.50;83.50;;;;;;5080231;28;20461;-44
2021/12/02 02:51:49;;;;;;;2.73;0.57;;;6.50;83.70;;;;;;5092400;28;20491;-43
2021/12/02 02:54:17;;;;;;;0.70;0.60;;;6.50;84.10;;;;;;5096147;28;20453;-44
2021/12/02 02:57:04;;;;;;;0.83;0.70;;;6.40;84.40;;;;;;5076050;28;20473;-43
2021/12/02 03:02:21;;;;;;;1.00;0.73;;;6.40;84.70;;;;;;5094320;27;20463;-43
2021/12/02 03:04:56;;;;;;;0.80;0.70;;;6.40;84.70;;;;;;5097313;28;20452;-43
2021/12/02 03:07:37;;;;;;;3.70;0.87;;;6.40;84.50;;;;;;5079841;28;20832;-43
2021/12/02 03:10:55;;;;;;;0.80;0.80;;;6.40;84.50;;;;;;5084503;28;20448;-44
2021/12/02 03:12:56;;;;;;;2.57;0.87;;;6.40;84.50;;;;;;5076037;28;20503;-44
2021/12/02 03:17:50;;;;;;;0.63;0.60;;;6.40;84.70;;;;;;5102804;28;20479;-44
2021/12/02 03:20:17;;;;;;;1.00;0.90;;;6.40;84.50;;;;;;5099494;28;20475;-43
2021/12/02 03:22:43;;;;;;;3.33;0.87;;;6.40;84.30;;;;;;5083635;28;20514;-43
2021/12/02 03:25:10;;;;;;;2.03;1.30;;;6.30;84.20;;;;;;5098780;28;20549;-43
2021/12/02 03:27:37;;;;;;;0.90;0.60;;;6.30;84.30;;;;;;5100766;28;20455;-43
2021/12/02 03:30:08;;;;;;;3.43;0.90;;;6.20;84.50;;;;;;5097333;28;20448;-43
2021/12/02 03:32:37;;;;;;;2.60;0.53;;;6.20;84.60;;;;;;5098590;27;20541;-42
2021/12/02 03:35:05;;;;;;;2.40;1.10;;;6.20;84.80;;;;;;5099445;27;20448;-42
2021/12/02 03:37:32;;;;;;;3.53;0.60;;;6.20;84.90;;;;;;5089962;28;20458;-42
2021/12/02 03:39:59;;;;;;;0.83;0.67;;;6.20;84.80;;;;;;5096380;28;20467;-42
2021/12/02 03:42:27;;;;;;;1.13;0.60;;;6.10;84.90;;;;;;5104217;28;20460;-42
2021/12/02 03:44:54;;;;;;;8.27;1.27;;;6.10;85.00;;;;;;5100723;28;20451;-43
2021/12/02 03:47:21;;;;;;;2.83;1.03;;;6.10;84.80;;;;;;5110102;27;20457;-43
2021/12/02 03:49:48;;;;;;;1.27;0.40;;;6.10;85.00;;;;;;5096873;28;20511;-43
2021/12/02 03:52:14;;;;;;;0.70;0.30;;;6.10;85.20;;;;;;5099483;28;20488;-43
2021/12/02 03:54:41;;;;;;;1.23;0.40;;;6.10;85.20;;;;;;5115553;27;20460;-43
2021/12/02 03:57:07;;;;;;;1.60;0.70;;;6.10;85.40;;;;;;5111669;28;20552;-43
2021/12/02 03:59:34;;;;;;;2.30;0.83;;;6.00;85.50;;;;;;5117276;28;20459;-43
2021/12/02 04:02:02;;;;;;;0.90;0.50;;;6.00;85.70;;;;;;5110820;28;21275;-43
2021/12/02 04:04:29;;;;;;;4.47;0.60;;;6.10;85.70;;;;;;5095778;28;20732;-43
2021/12/02 04:06:55;;;;;;;2.30;0.50;;;6.10;85.50;;;;;;5099977;27;20530;-43
2021/12/02 04:09:24;;;;;;;1.33;0.57;;;6.00;85.50;;;;;;5112394;27;20460;-43
2021/12/02 04:11:57;;;;;;;0.40;0.33;;;6.00;85.50;;;;;;5112285;28;20482;-43
2021/12/02 04:14:36;;;;;;;1.50;0.50;;;6.10;85.40;;;;;;5107162;28;20520;-43
2021/12/02 04:17:05;;;;;;;2.50;0.40;;;6.10;85.10;;;;;;5097910;28;20515;-43
2021/12/02 04:19:32;;;;;;;2.77;0.60;;;6.10;85.10;;;;;;5112434;28;20453;-43
2021/12/02 04:21:59;;;;;;;1.47;0.50;;;6.10;85.20;;;;;;5115207;28;20446;-43
2021/12/02 04:24:26;;;;;;;1.37;0.40;;;6.10;85.10;;;;;;5099327;28;20490;-43
2021/12/02 04:26:53;;;;;;;1.53;0.57;;;6.10;85.10;;;;;;5114263;28;20456;-43
2021/12/02 04:29:22;;;;;;;0.90;0.50;;;6.10;85.00;;;;;;5112205;27;20445;-43
2021/12/02 04:31:49;;;;;;;0.83;0.50;;;6.10;85.20;;;;;;5112210;27;20490;-43
2021/12/02 04:34:17;;;;;;;0.63;0.50;;;6.10;85.30;;;;;;5098344;28;20502;-43
2021/12/02 04:36:44;;;;;;;1.63;0.60;;;6.10;85.50;;;;;;5115828;27;20449;-43
2021/12/02 04:39:11;;;;;;;5.93;0.80;;;6.00;85.70;;;;;;5095672;28;20463;-43
2021/12/02 04:41:38;;;;;;;0.73;0.47;;;6.00;86.10;;;;;;5113455;28;20457;-43
2021/12/02 04:44:05;;;;;;;3.07;0.60;;;6.10;86.20;;;;;;5098380;27;21001;-44
2021/12/02 04:46:31;;;;;;;1.40;0.43;;;6.10;85.80;;;;;;5111997;28;20444;-43
2021/12/02 04:48:59;;;;;;;0.70;0.50;;;6.10;85.70;;;;;;5115472;27;20808;-43
2021/12/02 04:51:26;;;;;;;1.40;0.90;;;6.00;86.00;;;;;;5116973;28;20453;-43
2021/12/02 04:53:52;;;;;;;1.73;1.10;;;6.00;85.80;;;;;;5112769;28;20484;-43
2021/12/02 04:56:19;;;;;;;3.90;0.50;;;6.00;85.60;;;;;;5109533;28;20869;-43
2021/12/02 04:58:46;;;;;;;1.57;0.70;;;6.00;85.00;;;;;;5094431;28;20437;-43
2021/12/02 05:01:13;;;;;;;4.03;0.93;;;6.00;84.60;;;;;;5097119;28;20487;-43
2021/12/02 05:03:40;;;;;;;1.27;0.60;;;6.00;85.00;;;;;;5092946;28;20447;-43
2021/12/02 05:06:12;;;;;;;1.43;0.83;;;6.00;85.40;;;;;;5108202;28;20482;-43
2021/12/02 05:08:39;;;;;;;0.93;0.53;;;6.00;85.50;;;;;;5110613;28;20453;-43
2021/12/02 05:11:06;;;;;;;0.73;0.40;;;5.90;85.70;;;;;;5112302;28;20444;-43
2021/12/02 05:13:33;;;;;;;3.80;1.03;;;6.00;85.90;;;;;;5109293;28;20484;-43
2021/12/02 05:15:59;;;;;;;1.13;0.60;;;5.90;86.10;;;;;;5093047;28;20448;-43
2021/12/02 05:18:28;;;;;;;0.83;0.83;;;5.90;86.10;;;;;;5100437;28;20966;-43
2021/12/02 05:20:55;;;;;;;3.63;0.70;;;6.00;86.10;;;;;;5109500;28;20445;-43
2021/12/02 05:23:21;;;;;;;0.73;0.50;;;6.00;86.00;;;;;;5094318;28;20464;-43
2021/12/02 05:25:48;;;;;;;1.47;0.60;;;5.90;86.30;;;;;;5099492;28;20526;-43
2021/12/02 05:28:17;;;;;;;0.73;0.70;;;6.00;86.10;;;;;;5098894;28;20444;-43
2021/12/02 05:30:47;;;;;;;1.17;0.40;;;6.00;86.20;;;;;;5108964;28;20934;-43
2021/12/02 05:33:15;;;;;;;1.53;0.50;;;6.00;85.90;;;;;;5096302;28;20481;-43
2021/12/02 05:35:43;;;;;;;2.30;0.50;;;5.90;86.00;;;;;;5096312;28;20516;-43
2021/12/02 05:38:10;;;;;;;1.00;0.50;;;6.00;86.10;;;;;;5112999;28;20474;-43
2021/12/02 05:40:37;;;;;;;0.83;0.60;;;6.00;85.80;;;;;;5106888;28;20449;-43
2021/12/02 05:43:04;;;;;;;1.43;1.07;;;5.90;86.00;;;;;;5114643;27;20525;-43
2021/12/02 05:45:31;;;;;;;0.70;0.50;;;5.90;86.10;;;;;;5093570;28;20464;-43
2021/12/02 05:47:58;;;;;;;0.97;0.40;;;5.90;86.20;;;;;;5098321;28;20533;-43
2021/12/02 05:50:25;;;;;;;2.07;0.60;;;5.90;86.30;;;;;;5113199;27;20539;-43
2021/12/02 05:52:52;;;;;;;2.00;0.73;;;5.90;86.60;;;;;;5091257;28;20490;-43
2021/12/02 05:55:19;;;;;;;0.50;0.40;;;5.90;86.50;;;;;;5099833;28;20460;-43
2021/12/02 05:57:46;;;;;;;1.83;1.63;;;5.90;86.10;;;;;;5114291;28;20448;-43
2021/12/02 06:00:15;;;;;;;0.60;0.60;;;5.90;85.90;;;;;;5098140;28;20461;-43
2021/12/02 06:02:42;;;;;;;0.83;0.50;;;5.90;86.10;;;;;;5107749;28;20456;-43
2021/12/02 06:05:09;;;;;;;0.53;0.50;;;5.90;86.30;;;;;;5110131;27;20467;-43
2021/12/02 06:07:37;;;;;;;1.90;0.90;;;5.90;86.20;;;;;;5113867;27;20469;-43
2021/12/02 06:10:04;;;;;;;2.20;0.50;;;5.90;86.30;;;;;;5096867;28;20811;-43
2021/12/02 06:12:31;;;;;;;0.60;0.60;;;5.80;86.50;;;;;;5094927;28;20518;-43
2021/12/02 06:14:58;;;;;;;2.43;0.50;;;5.80;86.60;;;;;;5114239;28;20451;-43
2021/12/02 06:17:25;;;;;;;0.63;0.60;;;5.80;87.00;;;;;;5112601;28;20537;-43
2021/12/02 06:19:52;;;;;;;2.97;0.80;;;5.80;86.70;;;;;;5107294;28;20466;-43
2021/12/02 06:22:18;;;;;;;0.80;0.70;;;5.80;86.70;;;;;;5110983;28;20456;-43
2021/12/02 06:24:54;;;;;;;0.70;0.57;;;5.80;86.70;;;;;;5091215;28;20455;-43
2021/12/02 06:27:21;;;;;;;0.80;0.70;;;5.80;86.90;;;;;;5107892;28;20466;-43
2021/12/02 06:29:48;;;;;;;2.50;0.50;;;5.70;87.10;;;;;;5112399;28;20461;-43
2021/12/02 06:32:15;;;;;;;0.77;0.53;;;5.80;87.20;;;;;;5110949;28;20480;-43
2021/12/02 06:34:41;;;;;;;1.50;0.93;;;5.80;87.20;;;;;;5115191;28;20444;-43
2021/12/02 06:37:08;;;;;;;2.10;1.20;;;5.80;87.20;;;;;;5107275;28;20455;-43
2021/12/02 06:39:35;;;;;;;1.23;0.60;;;5.70;87.60;;;;;;5096150;28;20456;-43
2021/12/02 06:42:02;;;;;;;0.70;0.70;;;5.70;87.60;;;;;;5116944;27;20479;-43
2021/12/02 06:44:28;;;;;;;0.80;0.40;;;5.70;87.60;;;;;;5110345;27;20444;-43
2021/12/02 06:46:56;;;;;;;0.83;0.70;;;5.80;87.60;;;;;;5114005;27;20454;-43
2021/12/02 06:49:23;;;;;;;2.93;1.00;;;5.80;87.50;;;;;;5111535;27;20478;-43
2021/12/02 06:51:50;;;;;;;10.77;4.70;;;5.80;87.00;;;;;;5115632;27;20515;-43
2021/12/02 06:54:16;;;;;;;3.63;3.10;;;5.80;86.80;;;;;;5086773;28;20524;-43
2021/12/02 06:56:50;;;;;;;1.43;0.73;;;5.80;86.50;;;;;;5117806;27;20476;-43
2021/12/02 06:59:18;;;;;;;1.00;0.80;;;5.80;86.60;;;;;;5115040;28;20451;-43
2021/12/02 07:01:45;;;;;;;1.40;0.87;;;5.70;86.70;;;;;;5096597;27;20463;-43
2021/12/02 07:04:13;;;;;;;0.90;0.60;;;5.70;87.10;;;;;;5094037;28;20488;-43
2021/12/02 07:06:40;;;;;;;0.83;0.83;;;5.80;87.10;;;;;;5105431;28;20462;-43
2021/12/02 07:09:07;;;;;;;2.10;0.90;;;5.80;86.90;;;;;;5112157;28;20467;-43
2021/12/02 07:11:34;;;;;;;1.30;0.50;;;5.80;87.00;;;;;;5101610;27;20451;-43
2021/12/02 07:14:04;;;;;;;0.80;0.80;;;5.80;87.00;;;;;;5086126;27;20477;-43
2021/12/02 07:16:32;;;;;;;1.80;0.60;;;5.80;86.90;;;;;;5114096;27;20453;-43
2021/12/02 07:19:03;;;;;;;2.03;0.67;;;5.80;87.00;;;;;;5094875;28;20484;-43
2021/12/02 07:21:30;;;;;;;0.77;0.57;;;5.80;87.00;;;;;;5113381;28;20534;-43
2021/12/02 07:23:57;;;;;;;0.77;0.60;;;5.80;86.90;;;;;;5109321;28;20535;-43
2021/12/02 07:26:24;;;;;;;0.93;0.50;;;5.80;87.20;;;;;;5115285;27;20546;-43
2021/12/02 07:28:51;;;;;;;0.50;0.47;;;5.80;86.90;;;;;;5117380;27;20452;-43
2021/12/02 07:31:19;;;;;;;1.67;0.60;;;5.80;86.90;;;;;;5112866;27;20463;-43
2021/12/02 07:33:48;;;;;;;1.07;0.90;;;5.80;86.80;;;;;;5080424;28;20574;-43
2021/12/02 07:36:17;;;;;;;1.13;0.40;;;5.80;86.70;;;;;;5116319;27;20459;-43
2021/12/02 07:38:44;;;;;;;0.70;0.40;;;5.80;86.40;;;;;;5114479;28;20448;-43
2021/12/02 07:41:11;;;;;;;0.97;0.87;;;5.70;86.50;;;;;;5095634;28;20958;-43
2021/12/02 07:43:39;;;;;;;0.77;0.63;;;5.70;86.70;;;;;;5098958;28;20466;-43
2021/12/02 07:46:06;;;;;;;0.80;0.40;;;5.70;85.90;;;;;;5098967;28;20546;-43
2021/12/02 07:48:35;;;;;;;8.03;0.70;;;5.80;86.40;;;;;;5097631;28;20448;-43
2021/12/02 07:51:11;;;;;;;0.90;0.53;;;5.80;86.50;;;;;;5118134;27;20459;-43
2021/12/02 07:53:42;;;;;;;0.80;0.50;;;5.80;86.40;;;;;;5111636;27;20490;-44
2021/12/02 07:56:12;;;;;;;0.50;0.50;;;5.70;86.40;;;;;;5116836;27;20475;-44
2021/12/02 07:58:43;;;;;;;2.23;0.80;;;5.70;86.80;;;;;;5111973;27;20444;-44
2021/12/02 08:01:11;;;;;;;1.27;0.60;;;5.70;86.50;;;;;;5116752;27;20455;-44
2021/12/02 08:03:44;;;;;;;0.60;0.60;;;5.70;86.60;;;;;;5100629;28;20484;-44
2021/12/02 08:06:17;;;;;;;0.83;0.60;;;5.70;86.80;;;;;;5115432;28;20495;-44
2021/12/02 08:08:45;;;;;;;0.63;0.63;;;5.70;86.80;;;;;;5112875;28;20451;-43
2021/12/02 08:11:12;;;;;;;1.43;1.23;;;5.70;86.80;;;;;;5114229;28;20457;-43
2021/12/02 08:13:39;;;;;;;1.33;0.53;;;5.70;86.30;;;;;;5090735;27;20485;-43
2021/12/02 08:16:08;;;;;;;0.80;0.80;;;5.80;86.00;;;;;;5095266;28;20461;-43
2021/12/02 08:18:37;;;;;;;1.67;1.13;;;5.70;86.30;;;;;;5113080;27;20450;-43
2021/12/02 08:21:04;;;;;;;1.57;1.07;;;5.70;86.50;;;;;;5108647;27;20464;-43
2021/12/02 08:23:31;;;;;;;0.90;0.90;;;5.80;86.60;;;;;;5093907;28;20457;-43
2021/12/02 08:25:58;;;;;;;1.10;0.97;;;5.80;86.70;;;;;;5105735;28;20837;-43
2021/12/02 08:28:24;;;;;;;1.40;1.10;;;5.80;86.50;;;;;;5109995;28;21513;-43
2021/12/02 08:30:52;;;;;;;1.43;1.10;;;5.80;86.50;;;;;;5098642;28;20978;-43
2021/12/02 08:33:20;;;;;;;1.70;0.83;;;5.90;86.20;;;;;;5111521;27;20479;-43
2021/12/02 08:35:48;;;;;;;1.50;1.03;;;5.90;86.10;;;;;;5111370;27;20486;-43
2021/12/02 08:38:17;;;;;;;1.37;0.80;;;5.90;86.20;;;;;;5112988;27;20462;-43
2021/12/02 08:40:47;;;;;;;0.80;0.80;;;5.90;86.30;;;;;;5094006;28;20453;-43
2021/12/02 08:43:15;;;;;;;3.03;0.90;;;5.90;86.10;;;;;;5115113;27;20460;-43
2021/12/02 08:45:44;;;;;;;4.87;0.90;;;5.90;86.10;;;;;;5097373;28;20898;-43
2021/12/02 08:48:11;;;;;;;1.60;1.00;;;6.00;86.20;;;;;;5101478;28;20543;-43
2021/12/02 08:50:38;;;;;;;0.90;0.90;;;6.00;86.20;;;;;;5101531;27;20456;-43
2021/12/02 08:53:06;;;;;;;1.57;1.00;;;6.00;86.20;;;;;;5094271;28;20502;-43
2021/12/02 08:55:33;;;;;;;1.33;0.90;;;6.00;85.40;;;;;;5113614;27;20980;-43
2021/12/02 08:58:03;;;;;;;0.97;0.93;;;6.10;85.10;;;;;;5099084;28;23268;-44
2021/12/02 09:00:33;;;;;;;1.27;0.90;;;6.10;85.10;;;;;;5095923;28;20528;-44
2021/12/02 09:03:02;;;;;;;1.27;1.17;;;6.10;85.30;;;;;;5112703;27;20561;-44
2021/12/02 09:05:30;;;;;;;1.80;1.70;;;6.10;85.40;;;;;;5116825;27;20469;-44
2021/12/02 09:07:57;;;;;;;1.80;1.20;;;6.10;84.80;;;;;;5115768;27;20440;-42
2021/12/02 09:10:25;;;;;;;3.10;1.20;;;6.10;84.90;;;;;;5108882;27;20461;-43
2021/12/02 09:12:52;;;;;;;4.57;1.40;;;6.20;85.10;;;;;;5120957;27;20577;-43
2021/12/02 09:15:19;;;;;;;1.10;1.00;;;6.20;84.60;;;;;;5100519;27;20467;-43
2021/12/02 09:17:47;;;;;;;1.17;0.93;;;6.30;84.50;;;;;;5091166;27;20524;-43
2021/12/02 09:20:15;;;;;;;14.03;5.20;;;6.30;84.90;;;;;;5111348;28;20452;-44
2021/12/02 09:22:46;;;;;;;3.50;2.10;;;6.40;85.20;;;;;;5090403;28;20544;-42
2021/12/02 09:25:16;;;;;;;1.60;0.93;;;6.50;84.80;;;;;;5115068;27;20465;-42
2021/12/02 09:27:44;;;;;;;1.27;1.07;;;6.50;84.80;;;;;;5110843;28;20471;-42
2021/12/02 09:30:11;;;;;;;2.17;1.20;;;6.60;84.70;;;;;;5092092;28;20546;-42
2021/12/02 09:32:38;;;;;;;1.03;0.93;;;6.70;84.50;;;;;;5111239;27;20463;-43
2021/12/02 09:35:06;;;;;;;1.23;1.13;;;6.70;83.70;;;;;;5098812;28;20547;-43
2021/12/02 09:37:33;;;;;;;2.23;0.93;;;6.80;82.80;;;;;;5097888;28;20461;-43
2021/12/02 09:40:06;;;;;;;1.87;1.10;;;7.00;80.80;;;;;;5101426;28;20452;-43
2021/12/02 09:42:33;;;;;;;1.17;0.90;;;7.00;80.90;;;;;;5099586;28;20448;-43
2021/12/02 09:45:01;;;;;;;1.47;1.07;;;7.00;81.10;;;;;;5094826;28;20826;-43
2021/12/02 09:47:31;;;;;;;2.93;1.23;;;7.00;81.30;;;;;;5109609;27;20555;-43
2021/12/02 09:50:05;;;;;;;2.73;1.00;;;6.90;80.30;;;;;;5114890;27;20454;-43
2021/12/02 09:52:38;;;;;;;1.30;1.07;;;6.90;80.90;;;;;;5083795;28;20471;-43
2021/12/02 09:55:12;;;;;;;1.97;1.10;;;6.80;80.70;;;;;;5109709;27;20552;-43
2021/12/02 09:57:43;;;;;;;1.57;1.00;;;6.80;80.10;;;;;;5109792;28;20453;-42
2021/12/02 10:00:16;;;;;;;4.00;0.80;;;6.70;79.50;;;;;;5116248;27;20452;-42
2021/12/02 10:02:52;;;;;;;0.83;0.83;;;6.70;78.80;;;;;;5105505;28;20456;-42
2021/12/02 10:05:43;;;;;;;2.87;1.00;;;6.70;79.40;;;;;;5082514;27;20459;-43
2021/12/02 10:08:23;;;;;;;2.37;1.10;;;6.60;80.00;;;;;;5114149;28;20441;-43
2021/12/02 10:10:55;;;;;;;1.53;1.17;;;6.50;80.60;;;;;;5111157;28;20471;-43
2021/12/02 10:13:33;;;;;;;1.77;1.10;;;6.60;80.70;;;;;;5109041;28;20483;-43
2021/12/02 10:16:42;;;;;;;2.13;0.97;;;6.50;81.00;;;;;;5120611;27;20475;-43
2021/12/02 10:19:11;;;;;;;2.43;0.70;;;6.50;81.50;;;;;;5111917;28;20508;-43
2021/12/02 10:21:43;;;;;;;1.07;0.97;;;6.50;81.80;;;;;;5109363;28;20531;-43
2021/12/02 10:24:13;;;;;;;1.17;1.07;;;6.60;81.50;;;;;;5112898;27;20531;-43
2021/12/02 10:26:50;;;;;;;2.53;1.13;;;6.70;80.80;;;;;;5115635;27;20451;-43
2021/12/02 10:29:38;;;;;;;0.57;0.53;;;6.70;80.70;;;;;;5109860;28;20457;-43
2021/12/02 10:32:14;;;;;;;1.07;0.93;;;6.70;80.20;;;;;;5112452;28;20460;-43
2021/12/02 10:34:49;;;;;;;1.60;1.00;;;6.70;79.70;;;;;;5087903;28;20488;-43
2021/12/02 10:37:19;;;;;;;0.77;0.77;;;6.60;79.90;;;;;;5098842;28;20440;-43
2021/12/02 10:40:06;;;;;;;0.73;0.73;;;6.60;80.20;;;;;;5090386;28;20455;-43
2021/12/02 10:42:38;;;;;;;1.00;0.90;;;6.60;79.70;;;;;;5107712;28;20548;-43
2021/12/02 10:45:22;;;;;;;3.37;1.10;;;6.60;80.00;;;;;;5084881;28;20523;-43
2021/12/02 10:47:50;;;;;;;1.40;0.90;;;6.60;80.40;;;;;;5097578;28;20527;-43
2021/12/02 10:50:18;;;;;;;0.70;0.70;;;6.60;80.30;;;;;;5092171;28;20471;-43
2021/12/02 10:52:45;;;;;;;1.10;1.00;;;6.60;80.80;;;;;;5095894;28;20453;-43
2021/12/02 10:55:19;;;;;;;0.93;0.80;;;6.60;80.80;;;;;;5110498;28;20515;-43
2021/12/02 10:57:47;;;;;;;0.60;0.60;;;6.70;81.00;;;;;;5111409;28;20451;-43
2021/12/02 11:00:17;;;;;;;2.50;1.00;;;6.80;80.90;;;;;;5096180;28;20459;-43
2021/12/02 11:02:48;;;;;;;0.87;0.87;;;6.90;79.70;;;;;;5115621;28;20550;-43
2021/12/02 11:05:34;;;;;;;0.80;0.80;;;6.90;78.90;;;;;;5081492;28;20445;-43
2021/12/02 11:08:11;;;;;;;1.53;0.80;;;6.90;76.40;;;;;;5097319;28;20448;-43
2021/12/02 11:10:47;;;;;;;1.50;0.80;;;6.90;76.30;;;;;;5109947;28;20436;-43
2021/12/02 11:13:18;;;;;;;0.70;0.70;;;6.90;76.10;;;;;;5094134;28;20498;-43
2021/12/02 11:15:45;;;;;;;4.00;0.87;;;6.90;76.40;;;;;;5113603;28;20518;-43
2021/12/02 11:18:16;;;;;;;0.73;0.70;;;6.90;75.60;;;;;;5111832;28;20452;-43
2021/12/02 11:20:46;;;;;;;1.33;1.00;;;6.80;76.20;;;;;;5113497;28;20475;-43
2021/12/02 11:23:17;;;;;;;0.70;0.70;;;6.90;76.90;;;;;;5112809;28;20452;-43
2021/12/02 11:25:57;;;;;;;1.10;1.00;;;6.90;75.60;;;;;;5112221;28;20484;-43
2021/12/02 11:28:29;;;;;;;1.00;0.90;;;6.90;76.30;;;;;;5110241;28;20471;-43
2021/12/02 11:30:58;;;;;;;1.27;0.90;;;6.90;75.70;;;;;;5108884;27;20827;-43
2021/12/02 11:33:35;;;;;;;1.07;0.83;;;6.80;75.80;;;;;;5103075;28;20507;-43
2021/12/02 11:36:15;;;;;;;1.53;0.90;;;6.90;75.60;;;;;;5111269;27;20455;-43
2021/12/02 11:38:42;;;;;;;0.57;0.57;;;6.80;75.90;;;;;;5097591;27;20452;-43
2021/12/02 11:41:09;;;;;;;0.70;0.60;;;6.80;76.10;;;;;;5111282;27;20557;-43
2021/12/02 11:43:38;;;;;;;0.57;0.53;;;6.80;75.50;;;;;;5113469;27;20494;-43
2021/12/02 11:46:08;;;;;;;0.63;0.63;;;6.80;76.30;;;;;;5110664;28;20985;-43
2021/12/02 11:48:38;;;;;;;0.77;0.77;;;6.80;77.20;;;;;;5112811;27;20492;-43
2021/12/02 11:51:11;;;;;;;1.57;0.60;;;6.90;76.60;;;;;;5112380;28;20483;-43
2021/12/02 11:53:38;;;;;;;2.60;0.70;;;6.90;76.00;;;;;;5114006;28;20485;-43
2021/12/02 11:56:09;;;;;;;0.70;0.40;;;6.90;75.20;;;;;;5110012;28;20852;-43
2021/12/02 11:58:36;;;;;;;1.20;0.63;;;6.90;75.60;;;;;;5082894;28;20463;-43
2021/12/02 12:01:03;;;;;;;0.90;0.80;;;7.00;75.00;;;;;;5114562;27;20755;-43
2021/12/02 12:03:39;;;;;;;0.63;0.63;;;7.00;75.40;;;;;;5100498;28;20455;-43
2021/12/02 12:06:27;;;;;;;1.50;0.60;;;7.10;75.30;;;;;;5110436;27;20456;-43
2021/12/02 12:08:57;;;;;;;0.83;0.83;;;7.00;75.30;;;;;;5115952;28;20448;-43
2021/12/02 12:11:32;;;;;;;0.70;0.70;;;7.00;75.60;;;;;;5111238;28;20542;-43
2021/12/02 12:14:00;;;;;;;3.50;0.63;;;6.90;75.40;;;;;;5115924;27;20479;-44
2021/12/02 12:16:49;;;;;;;1.40;1.30;;;6.90;75.10;;;;;;5110383;27;21012;-44
2021/12/02 12:19:30;;;;;;;0.60;0.60;;;6.80;74.70;;;;;;5118250;27;20454;-44
2021/12/02 12:22:08;;;;;;;0.87;0.87;;;6.80;75.00;;;;;;5111676;28;20842;-44
2021/12/02 12:24:52;;;;;;;0.80;0.80;;;6.80;74.50;;;;;;5113852;28;20460;-44
2021/12/02 12:27:20;;;;;;;1.10;0.90;;;6.70;74.20;;;;;;5100783;27;20448;-44
2021/12/02 12:38:26;;;;;;;1.53;1.20;;;6.60;73.60;;;;;;5111361;27;20441;-44
2021/12/02 12:40:56;;;;;;;1.30;1.30;;;6.50;73.60;;;;;;5095757;28;20452;-44
2021/12/02 12:43:26;;;;;;;1.30;1.20;;;6.50;73.30;;;;;;5114209;27;20475;-43
2021/12/02 12:46:27;;;;;;;1.83;1.67;;;6.40;73.20;;;;;;5114234;28;20447;-43
2021/12/02 12:48:57;;;;;;;1.70;1.60;;;6.40;73.50;;;;;;5044029;28;20444;-43
2021/12/02 12:51:30;;;;;;;1.40;1.40;;;6.30;74.40;;;;;;5113422;27;20506;-43
2021/12/02 12:54:01;;;;;;;2.40;2.27;;;6.30;74.60;;;;;;5114946;28;20480;-43
2021/12/02 12:56:40;;;;;;;2.43;1.20;;;6.30;74.30;;;;;;5111108;28;20461;-43
2021/12/02 12:59:12;;;;;;;1.20;1.20;;;6.40;74.80;;;;;;5112096;28;20486;-43
2021/12/02 13:01:52;;;;;;;2.00;1.47;;;6.40;74.40;;;;;;5110083;28;20474;-43
2021/12/02 13:04:22;;;;;;;1.80;1.13;;;6.50;74.60;;;;;;5113158;28;20533;-43
2021/12/02 13:06:49;;;;;;;2.00;1.40;;;6.60;74.30;;;;;;5112014;28;20532;-43
2021/12/02 13:09:53;;;;;;;1.37;1.00;;;6.60;74.00;;;;;;5114849;28;20973;-43
2021/12/02 13:12:47;;;;;;;2.63;1.00;;;6.70;72.80;;;;;;5109357;28;20451;-43
2021/12/02 13:15:17;;;;;;;2.50;1.20;;;6.70;71.70;;;;;;5095255;28;20520;-43
2021/12/02 13:17:57;;;;;;;2.23;1.43;;;6.70;72.40;;;;;;5113492;27;20482;-43
2021/12/02 13:20:30;;;;;;;1.40;1.30;;;6.70;72.10;;;;;;5092947;28;20854;-43
2021/12/02 13:23:12;;;;;;;1.00;1.00;;;6.70;72.50;;;;;;5118595;27;20474;-43
2021/12/02 13:25:42;;;;;;;1.53;1.43;;;6.70;72.90;;;;;;5115317;28;20448;-43
2021/12/02 13:28:18;;;;;;;1.33;1.10;;;6.70;73.00;;;;;;5097065;28;20455;-43
2021/12/02 13:30:51;;;;;;;0.77;0.73;;;6.60;73.30;;;;;;5110336;27;20506;-43
2021/12/02 13:33:18;;;;;;;1.00;1.00;;;6.60;73.30;;;;;;5108058;28;20461;-43